Αρχική σελίδα
METAR-TAF:

METAR-TAF

Αεροδρόμια :

Paulo Afonso, Μπάια, Βραζιλία

γεωγραφικό πλάτος: 09-24S, γεωγραφικό μήκος: 038-13W, υψόμετρο: 253 μ

Παρών καιρός

Η αναφορά έγινε 1 ώρα και 3 λεπτά πριν, στις 20:00 UTC
Άνεμος 10 kt από Ν/NA
Θερμοκρασία 27°C
Υγρασία 66%
Πίεση 1013 hPa
Ορατότητα 10 χλμ και άνω
Λίγα νέφη σε ύψος 3600 πόδια
Διάσπαρτα νέφη σε ύψος 4200 πόδια

METAR: SBUF 172000Z AUTO 15010KT 9999 FEW036 SCT042 27/20 Q1013

Χρόνος: 18:03 (21:03 UTC)


TAF: λείπει

Μετεωρολογικές αναφορές και προγνώσεις για περισσότερα από 4000 αεροδρόμια (δελτία METAR και TAF).

Οι διαθέσιμοι σταθμοί απεικονίζονται στο χάρτη με κίτρινες και κόκκινες κουκκίδες.

Μετακινήστε το ποντίκι πάνω από τις κουκκίδες για να δείτε το όνομα του σταθμού.

Στη συνέχεια, κάντε κλικ για να δείτε τις μετεωρολογικές αναφορές και τις προγνώσεις καιρού.

Για να αλλάξετε το χάρτη: κάντε κλικ στα πράσινα κουμπιά με τον μαύρο σταυρό για να ζουμάρετε, στο πράσινο κουμπί με την παύλα για να αφαιρέσετε το ζουμ ή στα πράσινα βέλη για να αντιπαραβάλλετε χάρτες.


METAR-TAF: